sensor_id;sensor_type;location;lat;lon;timestamp;P1;durP1;ratioP1;P2;durP2;ratioP2
54641;SDS011;40536;53.194;5.728;2022-11-15T00:01:34;30.50;;;24.45;;
54641;SDS011;40536;53.194;5.728;2022-11-15T00:04:02;31.83;;;24.92;;
54641;SDS011;40536;53.194;5.728;2022-11-15T00:06:28;32.08;;;23.60;;
54641;SDS011;40536;53.194;5.728;2022-11-15T00:08:54;34.45;;;24.35;;
54641;SDS011;40536;53.194;5.728;2022-11-15T00:11:22;30.35;;;24.88;;
54641;SDS011;40536;53.194;5.728;2022-11-15T00:13:48;31.63;;;25.65;;
54641;SDS011;40536;53.194;5.728;2022-11-15T00:16:13;33.25;;;25.58;;
54641;SDS011;40536;53.194;5.728;2022-11-15T00:18:39;32.60;;;25.15;;
54641;SDS011;40536;53.194;5.728;2022-11-15T00:21:06;32.33;;;25.63;;
54641;SDS011;40536;53.194;5.728;2022-11-15T00:23:35;31.00;;;25.38;;
54641;SDS011;40536;53.194;5.728;2022-11-15T00:26:01;30.42;;;23.70;;
54641;SDS011;40536;53.194;5.728;2022-11-15T00:28:27;35.13;;;26.08;;
54641;SDS011;40536;53.194;5.728;2022-11-15T00:30:52;34.08;;;26.55;;
54641;SDS011;40536;53.194;5.728;2022-11-15T00:33:18;31.73;;;24.88;;
54641;SDS011;40536;53.194;5.728;2022-11-15T00:35:44;31.63;;;24.80;;
54641;SDS011;40536;53.194;5.728;2022-11-15T00:38:10;30.80;;;24.02;;
54641;SDS011;40536;53.194;5.728;2022-11-15T00:40:35;36.97;;;28.58;;
54641;SDS011;40536;53.194;5.728;2022-11-15T00:43:01;36.90;;;26.63;;
54641;SDS011;40536;53.194;5.728;2022-11-15T00:45:27;33.45;;;27.13;;
54641;SDS011;40536;53.194;5.728;2022-11-15T00:47:52;33.42;;;25.50;;
54641;SDS011;40536;53.194;5.728;2022-11-15T00:50:18;35.10;;;25.33;;
54641;SDS011;40536;53.194;5.728;2022-11-15T00:52:44;36.92;;;27.55;;
54641;SDS011;40536;53.194;5.728;2022-11-15T00:55:13;34.63;;;26.25;;
54641;SDS011;40536;53.194;5.728;2022-11-15T00:57:41;35.10;;;26.80;;
54641;SDS011;40536;53.194;5.728;2022-11-15T01:00:06;32.80;;;25.45;;
54641;SDS011;40536;53.194;5.728;2022-11-15T01:02:32;32.88;;;24.90;;
54641;SDS011;40536;53.194;5.728;2022-11-15T01:04:59;37.50;;;27.55;;
54641;SDS011;40536;53.194;5.728;2022-11-15T01:07:24;35.55;;;28.00;;
54641;SDS011;40536;53.194;5.728;2022-11-15T01:09:50;37.50;;;26.92;;
54641;SDS011;40536;53.194;5.728;2022-11-15T01:12:15;36.63;;;28.33;;
54641;SDS011;40536;53.194;5.728;2022-11-15T01:14:41;39.35;;;27.42;;
54641;SDS011;40536;53.194;5.728;2022-11-15T01:17:07;35.60;;;27.63;;
54641;SDS011;40536;53.194;5.728;2022-11-15T01:19:32;36.33;;;26.73;;
54641;SDS011;40536;53.194;5.728;2022-11-15T01:21:58;36.25;;;28.13;;
54641;SDS011;40536;53.194;5.728;2022-11-15T01:24:23;40.90;;;28.52;;
54641;SDS011;40536;53.194;5.728;2022-11-15T01:26:49;39.72;;;28.15;;
54641;SDS011;40536;53.194;5.728;2022-11-15T01:29:15;37.92;;;28.65;;
54641;SDS011;40536;53.194;5.728;2022-11-15T01:31:40;39.88;;;28.50;;
54641;SDS011;40536;53.194;5.728;2022-11-15T01:34:06;37.40;;;28.90;;
54641;SDS011;40536;53.194;5.728;2022-11-15T01:36:32;38.00;;;30.33;;
54641;SDS011;40536;53.194;5.728;2022-11-15T01:38:58;38.47;;;28.70;;
54641;SDS011;40536;53.194;5.728;2022-11-15T01:41:25;41.10;;;30.77;;
54641;SDS011;40536;53.194;5.728;2022-11-15T01:43:54;46.28;;;31.60;;
54641;SDS011;40536;53.194;5.728;2022-11-15T01:46:26;43.50;;;31.38;;
54641;SDS011;40536;53.194;5.728;2022-11-15T01:48:52;42.50;;;30.13;;
54641;SDS011;40536;53.194;5.728;2022-11-15T01:51:21;45.22;;;37.70;;
54641;SDS011;40536;53.194;5.728;2022-11-15T01:53:51;42.60;;;30.25;;
54641;SDS011;40536;53.194;5.728;2022-11-15T01:56:20;41.35;;;29.13;;
54641;SDS011;40536;53.194;5.728;2022-11-15T01:58:49;40.55;;;30.83;;
54641;SDS011;40536;53.194;5.728;2022-11-15T02:01:16;47.08;;;31.88;;
54641;SDS011;40536;53.194;5.728;2022-11-15T02:03:50;44.85;;;33.05;;
54641;SDS011;40536;53.194;5.728;2022-11-15T02:06:21;40.95;;;29.50;;
54641;SDS011;40536;53.194;5.728;2022-11-15T02:08:47;44.40;;;29.90;;
54641;SDS011;40536;53.194;5.728;2022-11-15T02:11:12;45.10;;;31.00;;
54641;SDS011;40536;53.194;5.728;2022-11-15T02:13:38;44.90;;;31.55;;
54641;SDS011;40536;53.194;5.728;2022-11-15T02:16:09;47.75;;;32.13;;
54641;SDS011;40536;53.194;5.728;2022-11-15T02:19:03;45.05;;;30.70;;
54641;SDS011;40536;53.194;5.728;2022-11-15T02:21:48;48.80;;;34.33;;
54641;SDS011;40536;53.194;5.728;2022-11-15T02:24:49;47.00;;;33.20;;
54641;SDS011;40536;53.194;5.728;2022-11-15T02:30:03;44.55;;;33.42;;
54641;SDS011;40536;53.194;5.728;2022-11-15T02:32:48;42.65;;;30.23;;
54641;SDS011;40536;53.194;5.728;2022-11-15T02:40:59;45.20;;;33.47;;
54641;SDS011;40536;53.194;5.728;2022-11-15T02:43:33;45.22;;;32.63;;
54641;SDS011;40536;53.194;5.728;2022-11-15T02:49:26;50.95;;;33.50;;
54641;SDS011;40536;53.194;5.728;2022-11-15T02:51:54;56.00;;;35.50;;
54641;SDS011;40536;53.194;5.728;2022-11-15T02:54:24;46.92;;;33.70;;
54641;SDS011;40536;53.194;5.728;2022-11-15T02:56:54;52.47;;;36.22;;
54641;SDS011;40536;53.194;5.728;2022-11-15T03:05:04;64.70;;;37.38;;
54641;SDS011;40536;53.194;5.728;2022-11-15T03:16:17;68.43;;;43.10;;
54641;SDS011;40536;53.194;5.728;2022-11-15T03:18:47;70.60;;;43.78;;
54641;SDS011;40536;53.194;5.728;2022-11-15T03:21:18;66.88;;;45.05;;
54641;SDS011;40536;53.194;5.728;2022-11-15T03:23:46;67.85;;;44.35;;
54641;SDS011;40536;53.194;5.728;2022-11-15T03:26:14;60.72;;;42.55;;
54641;SDS011;40536;53.194;5.728;2022-11-15T03:28:49;63.33;;;43.00;;
54641;SDS011;40536;53.194;5.728;2022-11-15T03:31:32;74.82;;;50.47;;
54641;SDS011;40536;53.194;5.728;2022-11-15T03:34:17;64.30;;;43.83;;
54641;SDS011;40536;53.194;5.728;2022-11-15T03:36:44;70.88;;;46.08;;
54641;SDS011;40536;53.194;5.728;2022-11-15T03:39:12;72.65;;;51.95;;
54641;SDS011;40536;53.194;5.728;2022-11-15T03:47:03;82.53;;;54.13;;
54641;SDS011;40536;53.194;5.728;2022-11-15T03:49:35;75.22;;;53.92;;
54641;SDS011;40536;53.194;5.728;2022-11-15T03:52:04;85.68;;;65.32;;
54641;SDS011;40536;53.194;5.728;2022-11-15T03:54:30;83.88;;;58.42;;
54641;SDS011;40536;53.194;5.728;2022-11-15T03:56:56;74.35;;;52.63;;
54641;SDS011;40536;53.194;5.728;2022-11-15T03:59:22;72.90;;;48.72;;
54641;SDS011;40536;53.194;5.728;2022-11-15T04:01:47;78.40;;;56.33;;
54641;SDS011;40536;53.194;5.728;2022-11-15T04:04:13;81.47;;;58.78;;
54641;SDS011;40536;53.194;5.728;2022-11-15T04:06:39;85.40;;;65.53;;
54641;SDS011;40536;53.194;5.728;2022-11-15T04:09:05;76.50;;;53.70;;
54641;SDS011;40536;53.194;5.728;2022-11-15T04:11:30;89.13;;;56.53;;
54641;SDS011;40536;53.194;5.728;2022-11-15T04:13:56;85.10;;;57.90;;
54641;SDS011;40536;53.194;5.728;2022-11-15T04:16:21;96.45;;;69.85;;
54641;SDS011;40536;53.194;5.728;2022-11-15T04:18:47;97.25;;;59.33;;
54641;SDS011;40536;53.194;5.728;2022-11-15T04:21:33;93.35;;;69.32;;
54641;SDS011;40536;53.194;5.728;2022-11-15T04:24:16;104.15;;;75.35;;
54641;SDS011;40536;53.194;5.728;2022-11-15T04:26:42;87.03;;;68.47;;
54641;SDS011;40536;53.194;5.728;2022-11-15T04:29:08;104.57;;;67.88;;
54641;SDS011;40536;53.194;5.728;2022-11-15T04:31:52;93.95;;;73.78;;
54641;SDS011;40536;53.194;5.728;2022-11-15T04:34:17;84.82;;;69.22;;
54641;SDS011;40536;53.194;5.728;2022-11-15T04:36:43;93.72;;;75.07;;
54641;SDS011;40536;53.194;5.728;2022-11-15T04:39:27;90.47;;;72.22;;
54641;SDS011;40536;53.194;5.728;2022-11-15T04:41:53;102.00;;;76.13;;
54641;SDS011;40536;53.194;5.728;2022-11-15T04:44:18;86.85;;;73.40;;
54641;SDS011;40536;53.194;5.728;2022-11-15T04:46:44;96.10;;;85.32;;
54641;SDS011;40536;53.194;5.728;2022-11-15T04:49:10;88.63;;;79.57;;
54641;SDS011;40536;53.194;5.728;2022-11-15T04:51:35;94.18;;;84.78;;
54641;SDS011;40536;53.194;5.728;2022-11-15T04:54:01;84.05;;;73.32;;
54641;SDS011;40536;53.194;5.728;2022-11-15T04:56:27;96.93;;;86.60;;
54641;SDS011;40536;53.194;5.728;2022-11-15T04:58:52;87.32;;;78.28;;
54641;SDS011;40536;53.194;5.728;2022-11-15T05:01:18;102.75;;;91.70;;
54641;SDS011;40536;53.194;5.728;2022-11-15T05:03:43;97.38;;;87.90;;
54641;SDS011;40536;53.194;5.728;2022-11-15T05:06:28;95.90;;;86.18;;
54641;SDS011;40536;53.194;5.728;2022-11-15T05:08:54;108.25;;;96.43;;
54641;SDS011;40536;53.194;5.728;2022-11-15T05:11:21;117.50;;;105.43;;
54641;SDS011;40536;53.194;5.728;2022-11-15T05:13:47;117.47;;;106.38;;
54641;SDS011;40536;53.194;5.728;2022-11-15T05:16:12;114.07;;;102.45;;
54641;SDS011;40536;53.194;5.728;2022-11-15T05:18:38;115.63;;;104.32;;
54641;SDS011;40536;53.194;5.728;2022-11-15T05:21:08;130.07;;;107.72;;
54641;SDS011;40536;53.194;5.728;2022-11-15T05:23:38;167.07;;;149.25;;
54641;SDS011;40536;53.194;5.728;2022-11-15T05:26:05;146.30;;;130.18;;
54641;SDS011;40536;53.194;5.728;2022-11-15T05:28:31;154.48;;;138.85;;
54641;SDS011;40536;53.194;5.728;2022-11-15T05:31:02;151.63;;;134.18;;
54641;SDS011;40536;53.194;5.728;2022-11-15T05:33:33;183.68;;;165.45;;
54641;SDS011;40536;53.194;5.728;2022-11-15T05:36:10;161.95;;;145.25;;
54641;SDS011;40536;53.194;5.728;2022-11-15T05:38:42;196.82;;;178.63;;
54641;SDS011;40536;53.194;5.728;2022-11-15T05:41:07;197.63;;;178.23;;
54641;SDS011;40536;53.194;5.728;2022-11-15T05:43:34;173.00;;;155.35;;
54641;SDS011;40536;53.194;5.728;2022-11-15T05:46:02;165.20;;;147.00;;
54641;SDS011;40536;53.194;5.728;2022-11-15T05:48:29;176.32;;;157.55;;
54641;SDS011;40536;53.194;5.728;2022-11-15T05:50:55;200.25;;;182.27;;
54641;SDS011;40536;53.194;5.728;2022-11-15T05:53:21;186.05;;;167.75;;
54641;SDS011;40536;53.194;5.728;2022-11-15T05:55:49;163.60;;;148.50;;
54641;SDS011;40536;53.194;5.728;2022-11-15T05:58:16;260.30;;;238.70;;
54641;SDS011;40536;53.194;5.728;2022-11-15T06:00:42;165.50;;;150.55;;
54641;SDS011;40536;53.194;5.728;2022-11-15T06:03:08;209.40;;;190.23;;
54641;SDS011;40536;53.194;5.728;2022-11-15T06:05:34;175.05;;;160.35;;
54641;SDS011;40536;53.194;5.728;2022-11-15T06:08:00;238.73;;;219.73;;
54641;SDS011;40536;53.194;5.728;2022-11-15T06:10:25;197.93;;;182.25;;
54641;SDS011;40536;53.194;5.728;2022-11-15T06:12:58;247.57;;;228.65;;
54641;SDS011;40536;53.194;5.728;2022-11-15T06:17:50;177.48;;;163.00;;
54641;SDS011;40536;53.194;5.728;2022-11-15T06:20:16;229.00;;;211.75;;
54641;SDS011;40536;53.194;5.728;2022-11-15T06:22:41;266.48;;;248.02;;
54641;SDS011;40536;53.194;5.728;2022-11-15T06:25:07;288.30;;;267.40;;
54641;SDS011;40536;53.194;5.728;2022-11-15T06:27:33;242.95;;;225.70;;
54641;SDS011;40536;53.194;5.728;2022-11-15T06:29:58;273.08;;;253.30;;
54641;SDS011;40536;53.194;5.728;2022-11-15T06:32:24;239.38;;;222.85;;
54641;SDS011;40536;53.194;5.728;2022-11-15T06:34:50;240.20;;;223.05;;
54641;SDS011;40536;53.194;5.728;2022-11-15T06:37:15;232.38;;;215.25;;
54641;SDS011;40536;53.194;5.728;2022-11-15T06:39:41;218.63;;;202.35;;
54641;SDS011;40536;53.194;5.728;2022-11-15T06:42:10;197.43;;;182.32;;
54641;SDS011;40536;53.194;5.728;2022-11-15T06:44:35;247.27;;;229.10;;
54641;SDS011;40536;53.194;5.728;2022-11-15T06:47:01;223.40;;;206.18;;
54641;SDS011;40536;53.194;5.728;2022-11-15T06:49:26;191.02;;;176.13;;
54641;SDS011;40536;53.194;5.728;2022-11-15T06:51:52;237.52;;;217.75;;
54641;SDS011;40536;53.194;5.728;2022-11-15T06:54:18;238.30;;;219.88;;
54641;SDS011;40536;53.194;5.728;2022-11-15T06:56:43;247.52;;;228.88;;
54641;SDS011;40536;53.194;5.728;2022-11-15T06:59:09;230.43;;;213.15;;
54641;SDS011;40536;53.194;5.728;2022-11-15T07:01:35;240.27;;;221.80;;
54641;SDS011;40536;53.194;5.728;2022-11-15T07:04:00;217.32;;;199.40;;
54641;SDS011;40536;53.194;5.728;2022-11-15T07:06:26;224.05;;;205.82;;
54641;SDS011;40536;53.194;5.728;2022-11-15T07:08:51;262.63;;;242.55;;
54641;SDS011;40536;53.194;5.728;2022-11-15T07:11:17;238.93;;;220.25;;
54641;SDS011;40536;53.194;5.728;2022-11-15T07:13:43;232.73;;;213.20;;
54641;SDS011;40536;53.194;5.728;2022-11-15T07:16:09;211.18;;;193.93;;
54641;SDS011;40536;53.194;5.728;2022-11-15T07:18:39;244.00;;;225.25;;
54641;SDS011;40536;53.194;5.728;2022-11-15T07:21:06;268.23;;;247.32;;
54641;SDS011;40536;53.194;5.728;2022-11-15T07:23:37;276.13;;;254.25;;
54641;SDS011;40536;53.194;5.728;2022-11-15T07:26:04;228.77;;;209.57;;
54641;SDS011;40536;53.194;5.728;2022-11-15T07:28:30;249.05;;;230.98;;
54641;SDS011;40536;53.194;5.728;2022-11-15T07:30:55;214.32;;;197.45;;
54641;SDS011;40536;53.194;5.728;2022-11-15T07:33:21;218.85;;;201.75;;
54641;SDS011;40536;53.194;5.728;2022-11-15T07:35:47;227.45;;;210.43;;
54641;SDS011;40536;53.194;5.728;2022-11-15T07:38:15;207.82;;;191.63;;
54641;SDS011;40536;53.194;5.728;2022-11-15T07:40:44;195.45;;;179.77;;
54641;SDS011;40536;53.194;5.728;2022-11-15T07:43:11;247.63;;;229.30;;
54641;SDS011;40536;53.194;5.728;2022-11-15T07:45:41;218.38;;;201.20;;
54641;SDS011;40536;53.194;5.728;2022-11-15T07:48:08;236.48;;;217.63;;
54641;SDS011;40536;53.194;5.728;2022-11-15T07:50:33;212.50;;;196.35;;
54641;SDS011;40536;53.194;5.728;2022-11-15T07:52:59;237.63;;;221.10;;
54641;SDS011;40536;53.194;5.728;2022-11-15T07:55:26;216.02;;;199.73;;
54641;SDS011;40536;53.194;5.728;2022-11-15T07:57:59;236.05;;;218.68;;
54641;SDS011;40536;53.194;5.728;2022-11-15T08:01:08;184.80;;;170.45;;
54641;SDS011;40536;53.194;5.728;2022-11-15T08:03:37;195.65;;;181.48;;
54641;SDS011;40536;53.194;5.728;2022-11-15T08:06:08;179.05;;;165.73;;
54641;SDS011;40536;53.194;5.728;2022-11-15T08:08:34;201.35;;;186.77;;
54641;SDS011;40536;53.194;5.728;2022-11-15T08:11:00;164.40;;;151.13;;
54641;SDS011;40536;53.194;5.728;2022-11-15T08:13:26;205.00;;;190.18;;
54641;SDS011;40536;53.194;5.728;2022-11-15T08:15:52;217.07;;;201.25;;
54641;SDS011;40536;53.194;5.728;2022-11-15T08:18:22;199.10;;;185.32;;
54641;SDS011;40536;53.194;5.728;2022-11-15T08:20:47;170.95;;;159.07;;
54641;SDS011;40536;53.194;5.728;2022-11-15T08:23:13;163.70;;;151.18;;
54641;SDS011;40536;53.194;5.728;2022-11-15T08:25:39;150.30;;;138.50;;
54641;SDS011;40536;53.194;5.728;2022-11-15T08:28:05;161.18;;;149.10;;
54641;SDS011;40536;53.194;5.728;2022-11-15T08:30:38;140.90;;;129.23;;
54641;SDS011;40536;53.194;5.728;2022-11-15T08:33:09;155.80;;;143.95;;
54641;SDS011;40536;53.194;5.728;2022-11-15T08:35:36;152.38;;;141.18;;
54641;SDS011;40536;53.194;5.728;2022-11-15T08:38:02;145.55;;;134.98;;
54641;SDS011;40536;53.194;5.728;2022-11-15T08:40:27;147.23;;;136.02;;
54641;SDS011;40536;53.194;5.728;2022-11-15T08:42:53;152.50;;;140.93;;
54641;SDS011;40536;53.194;5.728;2022-11-15T08:45:19;146.18;;;135.55;;
54641;SDS011;40536;53.194;5.728;2022-11-15T08:47:44;117.70;;;107.00;;
54641;SDS011;40536;53.194;5.728;2022-11-15T08:50:10;132.80;;;122.85;;
54641;SDS011;40536;53.194;5.728;2022-11-15T08:52:36;127.85;;;117.25;;
54641;SDS011;40536;53.194;5.728;2022-11-15T08:55:01;130.95;;;121.35;;
54641;SDS011;40536;53.194;5.728;2022-11-15T08:57:30;128.23;;;118.05;;
54641;SDS011;40536;53.194;5.728;2022-11-15T08:59:56;132.77;;;122.82;;
54641;SDS011;40536;53.194;5.728;2022-11-15T09:02:22;128.00;;;118.90;;
54641;SDS011;40536;53.194;5.728;2022-11-15T09:04:48;128.63;;;118.35;;
54641;SDS011;40536;53.194;5.728;2022-11-15T09:07:13;136.80;;;126.93;;
54641;SDS011;40536;53.194;5.728;2022-11-15T09:09:39;132.07;;;122.40;;
54641;SDS011;40536;53.194;5.728;2022-11-15T09:12:05;125.93;;;116.47;;
54641;SDS011;40536;53.194;5.728;2022-11-15T09:14:31;129.15;;;119.47;;
54641;SDS011;40536;53.194;5.728;2022-11-15T09:16:57;82.38;;;74.70;;
54641;SDS011;40536;53.194;5.728;2022-11-15T09:19:23;121.88;;;113.18;;
54641;SDS011;40536;53.194;5.728;2022-11-15T09:21:49;115.28;;;106.57;;
54641;SDS011;40536;53.194;5.728;2022-11-15T09:24:15;104.65;;;96.15;;
54641;SDS011;40536;53.194;5.728;2022-11-15T09:26:41;83.95;;;76.22;;
54641;SDS011;40536;53.194;5.728;2022-11-15T09:29:06;98.20;;;90.47;;
54641;SDS011;40536;53.194;5.728;2022-11-15T09:31:32;93.20;;;85.80;;
54641;SDS011;40536;53.194;5.728;2022-11-15T09:33:57;88.10;;;80.63;;
54641;SDS011;40536;53.194;5.728;2022-11-15T09:36:23;97.10;;;89.55;;
54641;SDS011;40536;53.194;5.728;2022-11-15T09:38:49;88.05;;;81.22;;
54641;SDS011;40536;53.194;5.728;2022-11-15T09:46:34;67.05;;;61.15;;
54641;SDS011;40536;53.194;5.728;2022-11-15T09:49:13;57.75;;;52.33;;
54641;SDS011;40536;53.194;5.728;2022-11-15T09:51:44;48.63;;;43.10;;
54641;SDS011;40536;53.194;5.728;2022-11-15T09:56:47;48.03;;;42.92;;
54641;SDS011;40536;53.194;5.728;2022-11-15T10:01:48;55.55;;;49.72;;
54641;SDS011;40536;53.194;5.728;2022-11-15T10:04:22;43.15;;;38.47;;
54641;SDS011;40536;53.194;5.728;2022-11-15T10:06:53;50.75;;;46.00;;
54641;SDS011;40536;53.194;5.728;2022-11-15T10:09:27;66.13;;;59.92;;
54641;SDS011;40536;53.194;5.728;2022-11-15T10:12:00;58.05;;;52.13;;
54641;SDS011;40536;53.194;5.728;2022-11-15T10:14:27;48.38;;;43.42;;
54641;SDS011;40536;53.194;5.728;2022-11-15T10:22:28;49.83;;;44.53;;
54641;SDS011;40536;53.194;5.728;2022-11-15T10:27:34;59.90;;;54.13;;
54641;SDS011;40536;53.194;5.728;2022-11-15T10:30:00;48.60;;;43.40;;
54641;SDS011;40536;53.194;5.728;2022-11-15T10:32:26;46.63;;;42.05;;
54641;SDS011;40536;53.194;5.728;2022-11-15T10:34:52;56.95;;;51.78;;
54641;SDS011;40536;53.194;5.728;2022-11-15T10:37:31;41.70;;;37.58;;
54641;SDS011;40536;53.194;5.728;2022-11-15T10:40:04;43.63;;;39.20;;
54641;SDS011;40536;53.194;5.728;2022-11-15T10:45:34;38.65;;;34.78;;
54641;SDS011;40536;53.194;5.728;2022-11-15T10:50:44;35.75;;;31.13;;
54641;SDS011;40536;53.194;5.728;2022-11-15T10:55:53;33.67;;;30.08;;
54641;SDS011;40536;53.194;5.728;2022-11-15T10:58:28;35.08;;;31.45;;
54641;SDS011;40536;53.194;5.728;2022-11-15T11:01:11;31.42;;;28.02;;
54641;SDS011;40536;53.194;5.728;2022-11-15T11:03:45;45.63;;;41.10;;
54641;SDS011;40536;53.194;5.728;2022-11-15T11:06:24;32.00;;;27.92;;
54641;SDS011;40536;53.194;5.728;2022-11-15T11:09:08;38.30;;;34.20;;
54641;SDS011;40536;53.194;5.728;2022-11-15T11:12:09;28.73;;;25.65;;
54641;SDS011;40536;53.194;5.728;2022-11-15T11:14:37;36.45;;;32.72;;
54641;SDS011;40536;53.194;5.728;2022-11-15T11:17:13;28.98;;;24.63;;
54641;SDS011;40536;53.194;5.728;2022-11-15T11:25:28;32.28;;;29.02;;
54641;SDS011;40536;53.194;5.728;2022-11-15T11:30:58;29.98;;;25.95;;
54641;SDS011;40536;53.194;5.728;2022-11-15T11:33:40;27.30;;;21.70;;
54641;SDS011;40536;53.194;5.728;2022-11-15T11:50:41;25.30;;;20.17;;
54641;SDS011;40536;53.194;5.728;2022-11-15T11:56:04;21.00;;;18.58;;
54641;SDS011;40536;53.194;5.728;2022-11-15T11:58:52;23.73;;;20.52;;
54641;SDS011;40536;53.194;5.728;2022-11-15T12:09:38;23.67;;;20.13;;
54641;SDS011;40536;53.194;5.728;2022-11-15T12:12:11;22.38;;;19.45;;
54641;SDS011;40536;53.194;5.728;2022-11-15T12:14:49;20.83;;;18.13;;
54641;SDS011;40536;53.194;5.728;2022-11-15T12:17:28;21.25;;;18.45;;
54641;SDS011;40536;53.194;5.728;2022-11-15T12:20:14;24.77;;;22.13;;
54641;SDS011;40536;53.194;5.728;2022-11-15T12:23:05;21.33;;;18.30;;
54641;SDS011;40536;53.194;5.728;2022-11-15T12:26:04;20.30;;;18.38;;
54641;SDS011;40536;53.194;5.728;2022-11-15T12:28:45;20.35;;;18.20;;
54641;SDS011;40536;53.194;5.728;2022-11-15T12:33:56;19.73;;;17.73;;
54641;SDS011;40536;53.194;5.728;2022-11-15T12:41:34;19.00;;;16.02;;
54641;SDS011;40536;53.194;5.728;2022-11-15T12:44:02;14.55;;;13.02;;
54641;SDS011;40536;53.194;5.728;2022-11-15T12:48:56;13.32;;;11.57;;
54641;SDS011;40536;53.194;5.728;2022-11-15T13:02:19;13.18;;;8.75;;
54641;SDS011;40536;53.194;5.728;2022-11-15T13:17:45;7.93;;;6.80;;
54641;SDS011;40536;53.194;5.728;2022-11-15T13:22:48;7.65;;;6.85;;
54641;SDS011;40536;53.194;5.728;2022-11-15T13:27:58;8.73;;;7.20;;
54641;SDS011;40536;53.194;5.728;2022-11-15T13:30:27;9.27;;;8.02;;
54641;SDS011;40536;53.194;5.728;2022-11-15T13:32:55;13.77;;;12.57;;
54641;SDS011;40536;53.194;5.728;2022-11-15T13:35:33;10.40;;;8.63;;
54641;SDS011;40536;53.194;5.728;2022-11-15T13:38:04;11.10;;;10.10;;
54641;SDS011;40536;53.194;5.728;2022-11-15T13:40:34;10.43;;;9.43;;
54641;SDS011;40536;53.194;5.728;2022-11-15T13:43:17;9.48;;;8.52;;
54641;SDS011;40536;53.194;5.728;2022-11-15T13:48:40;10.52;;;9.50;;
54641;SDS011;40536;53.194;5.728;2022-11-15T13:51:15;9.73;;;8.73;;
54641;SDS011;40536;53.194;5.728;2022-11-15T13:53:43;11.35;;;10.35;;
54641;SDS011;40536;53.194;5.728;2022-11-15T13:56:14;13.07;;;11.85;;
54641;SDS011;40536;53.194;5.728;2022-11-15T13:58:41;17.65;;;16.20;;
54641;SDS011;40536;53.194;5.728;2022-11-15T14:01:11;48.72;;;45.85;;
54641;SDS011;40536;53.194;5.728;2022-11-15T14:03:46;11.23;;;9.57;;
54641;SDS011;40536;53.194;5.728;2022-11-15T14:06:16;11.45;;;10.45;;
54641;SDS011;40536;53.194;5.728;2022-11-15T14:11:52;10.95;;;9.85;;
54641;SDS011;40536;53.194;5.728;2022-11-15T14:14:23;11.43;;;10.32;;
54641;SDS011;40536;53.194;5.728;2022-11-15T14:16:51;12.02;;;11.02;;
54641;SDS011;40536;53.194;5.728;2022-11-15T14:25:04;11.45;;;10.35;;
54641;SDS011;40536;53.194;5.728;2022-11-15T14:27:43;10.88;;;8.95;;
54641;SDS011;40536;53.194;5.728;2022-11-15T14:30:23;12.15;;;10.95;;
54641;SDS011;40536;53.194;5.728;2022-11-15T14:32:49;13.43;;;9.73;;
54641;SDS011;40536;53.194;5.728;2022-11-15T14:35:19;11.88;;;10.43;;
54641;SDS011;40536;53.194;5.728;2022-11-15T14:37:46;11.82;;;10.80;;
54641;SDS011;40536;53.194;5.728;2022-11-15T14:40:13;10.98;;;9.02;;
54641;SDS011;40536;53.194;5.728;2022-11-15T14:42:42;11.85;;;10.77;;
54641;SDS011;40536;53.194;5.728;2022-11-15T14:45:16;9.43;;;8.52;;
54641;SDS011;40536;53.194;5.728;2022-11-15T14:47:43;8.35;;;7.43;;
54641;SDS011;40536;53.194;5.728;2022-11-15T14:50:13;8.82;;;7.93;;
54641;SDS011;40536;53.194;5.728;2022-11-15T14:52:44;8.60;;;7.63;;
54641;SDS011;40536;53.194;5.728;2022-11-15T14:57:44;10.48;;;9.43;;
54641;SDS011;40536;53.194;5.728;2022-11-15T15:00:10;11.18;;;8.75;;
54641;SDS011;40536;53.194;5.728;2022-11-15T15:02:37;11.60;;;10.57;;
54641;SDS011;40536;53.194;5.728;2022-11-15T15:07:57;12.23;;;9.75;;
54641;SDS011;40536;53.194;5.728;2022-11-15T15:10:23;12.52;;;11.43;;
54641;SDS011;40536;53.194;5.728;2022-11-15T15:12:50;11.32;;;10.35;;
54641;SDS011;40536;53.194;5.728;2022-11-15T15:15:17;10.63;;;9.63;;
54641;SDS011;40536;53.194;5.728;2022-11-15T15:17:46;10.57;;;9.57;;
54641;SDS011;40536;53.194;5.728;2022-11-15T15:20:12;9.02;;;8.13;;
54641;SDS011;40536;53.194;5.728;2022-11-15T15:22:38;9.32;;;8.13;;
54641;SDS011;40536;53.194;5.728;2022-11-15T15:27:55;12.00;;;10.95;;
54641;SDS011;40536;53.194;5.728;2022-11-15T15:30:21;10.82;;;9.98;;
54641;SDS011;40536;53.194;5.728;2022-11-15T15:32:48;11.30;;;10.35;;
54641;SDS011;40536;53.194;5.728;2022-11-15T15:35:14;10.48;;;9.57;;
54641;SDS011;40536;53.194;5.728;2022-11-15T15:37:41;11.68;;;10.68;;
54641;SDS011;40536;53.194;5.728;2022-11-15T15:40:13;15.27;;;13.88;;
54641;SDS011;40536;53.194;5.728;2022-11-15T15:42:45;10.27;;;9.48;;
54641;SDS011;40536;53.194;5.728;2022-11-15T15:45:13;11.45;;;10.32;;
54641;SDS011;40536;53.194;5.728;2022-11-15T15:47:39;10.23;;;9.32;;
54641;SDS011;40536;53.194;5.728;2022-11-15T15:50:22;11.05;;;9.48;;
54641;SDS011;40536;53.194;5.728;2022-11-15T15:52:50;11.25;;;10.23;;
54641;SDS011;40536;53.194;5.728;2022-11-15T15:55:17;10.85;;;9.77;;
54641;SDS011;40536;53.194;5.728;2022-11-15T15:57:43;10.85;;;9.93;;
54641;SDS011;40536;53.194;5.728;2022-11-15T16:00:09;11.30;;;10.23;;
54641;SDS011;40536;53.194;5.728;2022-11-15T16:02:38;11.30;;;10.35;;
54641;SDS011;40536;53.194;5.728;2022-11-15T16:05:04;11.25;;;10.25;;
54641;SDS011;40536;53.194;5.728;2022-11-15T16:07:30;11.90;;;10.90;;
54641;SDS011;40536;53.194;5.728;2022-11-15T16:09:56;11.00;;;9.90;;
54641;SDS011;40536;53.194;5.728;2022-11-15T16:12:25;10.27;;;9.48;;
54641;SDS011;40536;53.194;5.728;2022-11-15T16:14:51;11.27;;;10.35;;
54641;SDS011;40536;53.194;5.728;2022-11-15T16:17:18;14.50;;;13.32;;
54641;SDS011;40536;53.194;5.728;2022-11-15T16:19:48;14.27;;;13.05;;
54641;SDS011;40536;53.194;5.728;2022-11-15T16:22:14;12.43;;;11.52;;
54641;SDS011;40536;53.194;5.728;2022-11-15T16:24:40;12.88;;;11.98;;
54641;SDS011;40536;53.194;5.728;2022-11-15T16:27:09;14.00;;;12.93;;
54641;SDS011;40536;53.194;5.728;2022-11-15T16:29:51;12.15;;;11.25;;
54641;SDS011;40536;53.194;5.728;2022-11-15T16:32:16;14.80;;;13.70;;
54641;SDS011;40536;53.194;5.728;2022-11-15T16:34:42;12.57;;;11.40;;
54641;SDS011;40536;53.194;5.728;2022-11-15T16:37:12;13.85;;;12.57;;
54641;SDS011;40536;53.194;5.728;2022-11-15T16:39:47;11.02;;;10.13;;
54641;SDS011;40536;53.194;5.728;2022-11-15T16:42:13;12.73;;;11.63;;
54641;SDS011;40536;53.194;5.728;2022-11-15T16:44:39;15.40;;;13.88;;
54641;SDS011;40536;53.194;5.728;2022-11-15T16:47:04;17.75;;;16.35;;
54641;SDS011;40536;53.194;5.728;2022-11-15T16:49:36;12.20;;;11.05;;
54641;SDS011;40536;53.194;5.728;2022-11-15T16:52:02;12.25;;;11.00;;
54641;SDS011;40536;53.194;5.728;2022-11-15T16:54:27;14.32;;;13.02;;
54641;SDS011;40536;53.194;5.728;2022-11-15T16:56:53;13.07;;;11.75;;
54641;SDS011;40536;53.194;5.728;2022-11-15T16:59:19;14.13;;;12.93;;
54641;SDS011;40536;53.194;5.728;2022-11-15T17:01:45;13.90;;;12.70;;